sensor_id;sensor_type;location;lat;lon;timestamp;pressure;altitude;pressure_sealevel;temperature;humidity
33404;BME280;19751;40.274;18.268;2022-07-21T00:02:05;101210.50;;;25.70;81.76
33404;BME280;19751;40.274;18.268;2022-07-21T00:04:30;101207.47;;;25.72;81.54
33404;BME280;19751;40.274;18.268;2022-07-21T00:06:56;101207.19;;;25.73;82.14
33404;BME280;19751;40.274;18.268;2022-07-21T00:09:22;101209.94;;;25.73;82.28
33404;BME280;19751;40.274;18.268;2022-07-21T00:11:47;101204.44;;;25.68;82.62
33404;BME280;19751;40.274;18.268;2022-07-21T00:14:13;101203.88;;;25.66;82.50
33404;BME280;19751;40.274;18.268;2022-07-21T00:16:41;101209.41;;;25.66;82.70
33404;BME280;19751;40.274;18.268;2022-07-21T00:19:07;101210.50;;;25.65;83.13
33404;BME280;19751;40.274;18.268;2022-07-21T00:21:33;101203.88;;;25.66;83.51
33404;BME280;19751;40.274;18.268;2022-07-21T00:23:59;101210.78;;;25.64;83.99
33404;BME280;19751;40.274;18.268;2022-07-21T00:26:24;101201.69;;;25.63;84.23
33404;BME280;19751;40.274;18.268;2022-07-21T00:28:50;101202.78;;;25.62;84.02
33404;BME280;19751;40.274;18.268;2022-07-21T00:31:15;101205.00;;;25.60;83.47
33404;BME280;19751;40.274;18.268;2022-07-21T00:33:41;101203.38;;;25.59;83.61
33404;BME280;19751;40.274;18.268;2022-07-21T00:36:07;101204.16;;;25.54;84.02
33404;BME280;19751;40.274;18.268;2022-07-21T00:38:33;101206.13;;;25.49;84.55
33404;BME280;19751;40.274;18.268;2022-07-21T00:40:58;101210.00;;;25.48;85.14
33404;BME280;19751;40.274;18.268;2022-07-21T00:43:24;101207.22;;;25.48;85.24
33404;BME280;19751;40.274;18.268;2022-07-21T00:45:52;101210.00;;;25.48;85.49
33404;BME280;19751;40.274;18.268;2022-07-21T00:48:18;101203.38;;;25.49;85.86
33404;BME280;19751;40.274;18.268;2022-07-21T00:50:43;101206.69;;;25.51;86.12
33404;BME280;19751;40.274;18.268;2022-07-21T00:53:09;101209.72;;;25.44;86.20
33404;BME280;19751;40.274;18.268;2022-07-21T00:55:35;101203.13;;;25.35;86.60
33404;BME280;19751;40.274;18.268;2022-07-21T00:58:00;101202.03;;;25.26;87.11
33404;BME280;19751;40.274;18.268;2022-07-21T01:00:28;101197.88;;;25.18;87.36
33404;BME280;19751;40.274;18.268;2022-07-21T01:02:55;101197.03;;;25.13;87.19
33404;BME280;19751;40.274;18.268;2022-07-21T01:05:21;101201.44;;;24.98;87.31
33404;BME280;19751;40.274;18.268;2022-07-21T01:07:49;101197.56;;;24.89;87.80
33404;BME280;19751;40.274;18.268;2022-07-21T01:10:16;101203.63;;;24.81;88.23
33404;BME280;19751;40.274;18.268;2022-07-21T01:12:42;101203.34;;;24.77;88.31
33404;BME280;19751;40.274;18.268;2022-07-21T01:15:09;101198.91;;;24.71;88.41
33404;BME280;19751;40.274;18.268;2022-07-21T01:17:35;101201.94;;;24.65;88.66
33404;BME280;19751;40.274;18.268;2022-07-21T01:20:07;101201.94;;;24.60;88.44
33404;BME280;19751;40.274;18.268;2022-07-21T01:22:35;101199.41;;;24.48;88.54
33404;BME280;19751;40.274;18.268;2022-07-21T01:25:02;101198.22;;;24.34;89.11
33404;BME280;19751;40.274;18.268;2022-07-21T01:27:28;101196.28;;;24.24;89.72
33404;BME280;19751;40.274;18.268;2022-07-21T01:29:54;101198.72;;;24.15;90.40
33404;BME280;19751;40.274;18.268;2022-07-21T01:32:21;101197.88;;;24.10;90.98
33404;BME280;19751;40.274;18.268;2022-07-21T01:34:46;101200.28;;;24.01;91.57
33404;BME280;19751;40.274;18.268;2022-07-21T01:37:13;101194.22;;;23.94;92.53
33404;BME280;19751;40.274;18.268;2022-07-21T01:39:38;101188.97;;;23.92;93.19
33404;BME280;19751;40.274;18.268;2022-07-21T01:42:22;101190.66;;;23.93;93.43
33404;BME280;19751;40.274;18.268;2022-07-21T01:44:48;101193.94;;;23.95;93.21
33404;BME280;19751;40.274;18.268;2022-07-21T01:47:14;101197.50;;;23.91;93.50
33404;BME280;19751;40.274;18.268;2022-07-21T01:49:40;101199.09;;;23.81;94.08
33404;BME280;19751;40.274;18.268;2022-07-21T01:52:06;101197.47;;;23.80;94.56
33404;BME280;19751;40.274;18.268;2022-07-21T01:54:32;101199.09;;;23.81;94.49
33404;BME280;19751;40.274;18.268;2022-07-21T01:56:57;101200.75;;;23.83;94.76
33404;BME280;19751;40.274;18.268;2022-07-21T01:59:22;101196.91;;;23.84;95.00
33404;BME280;19751;40.274;18.268;2022-07-21T02:01:48;101193.34;;;23.88;95.04
33404;BME280;19751;40.274;18.268;2022-07-21T02:04:14;101200.25;;;23.91;94.59
33404;BME280;19751;40.274;18.268;2022-07-21T02:06:39;101190.56;;;23.83;95.01
33404;BME280;19751;40.274;18.268;2022-07-21T02:09:05;101189.75;;;23.83;95.19
33404;BME280;19751;40.274;18.268;2022-07-21T02:11:32;101191.16;;;23.85;95.59
33404;BME280;19751;40.274;18.268;2022-07-21T02:13:58;101184.25;;;23.83;95.78
33404;BME280;19751;40.274;18.268;2022-07-21T02:16:23;101182.59;;;23.81;96.15
33404;BME280;19751;40.274;18.268;2022-07-21T02:18:49;101180.09;;;23.80;96.51
33404;BME280;19751;40.274;18.268;2022-07-21T02:21:15;101184.81;;;23.85;96.52
33404;BME280;19751;40.274;18.268;2022-07-21T02:23:40;101184.59;;;23.96;96.41
33404;BME280;19751;40.274;18.268;2022-07-21T02:26:06;101183.75;;;23.96;95.81
33404;BME280;19751;40.274;18.268;2022-07-21T02:28:31;101180.47;;;23.94;96.07
33404;BME280;19751;40.274;18.268;2022-07-21T02:30:57;101179.91;;;23.97;96.16
33404;BME280;19751;40.274;18.268;2022-07-21T02:33:22;101176.09;;;24.03;95.95
33404;BME280;19751;40.274;18.268;2022-07-21T02:35:48;101176.69;;;24.15;95.51
33404;BME280;19751;40.274;18.268;2022-07-21T02:38:13;101172.03;;;24.21;94.90
33404;BME280;19751;40.274;18.268;2022-07-21T02:40:39;101174.25;;;24.29;94.47
33404;BME280;19751;40.274;18.268;2022-07-21T02:43:05;101178.69;;;24.35;94.17
33404;BME280;19751;40.274;18.268;2022-07-21T02:45:32;101178.41;;;24.37;93.85
33404;BME280;19751;40.274;18.268;2022-07-21T02:48:04;101177.09;;;24.39;93.63
33404;BME280;19751;40.274;18.268;2022-07-21T02:50:32;101185.63;;;24.43;93.62
33404;BME280;19751;40.274;18.268;2022-07-21T02:53:01;101172.69;;;24.43;93.01
33404;BME280;19751;40.274;18.268;2022-07-21T02:55:27;101177.09;;;24.44;92.63
33404;BME280;19751;40.274;18.268;2022-07-21T02:58:15;101179.28;;;24.42;91.97
33404;BME280;19751;40.274;18.268;2022-07-21T03:00:44;101182.59;;;24.39;92.05
33404;BME280;19751;40.274;18.268;2022-07-21T03:03:10;101181.78;;;24.39;91.72
33404;BME280;19751;40.274;18.268;2022-07-21T03:05:36;101176.50;;;24.37;91.88
33404;BME280;19751;40.274;18.268;2022-07-21T03:08:03;101180.88;;;24.33;91.85
33404;BME280;19751;40.274;18.268;2022-07-21T03:10:29;101179.50;;;24.30;92.06
33404;BME280;19751;40.274;18.268;2022-07-21T03:12:55;101178.41;;;24.31;92.02
33404;BME280;19751;40.274;18.268;2022-07-21T03:15:21;101184.75;;;24.37;91.77
33404;BME280;19751;40.274;18.268;2022-07-21T03:17:46;101177.38;;;24.43;91.45
33404;BME280;19751;40.274;18.268;2022-07-21T03:20:12;101187.84;;;24.46;91.36
33404;BME280;19751;40.274;18.268;2022-07-21T03:22:38;101183.19;;;24.51;90.64
33404;BME280;19751;40.274;18.268;2022-07-21T03:25:04;101187.88;;;24.56;90.51
33404;BME280;19751;40.274;18.268;2022-07-21T03:27:30;101187.59;;;24.58;90.32
33404;BME280;19751;40.274;18.268;2022-07-21T03:29:55;101183.19;;;24.57;89.86
33404;BME280;19751;40.274;18.268;2022-07-21T03:32:21;101187.03;;;24.55;89.66
33404;BME280;19751;40.274;18.268;2022-07-21T03:34:46;101185.13;;;24.56;89.46
33404;BME280;19751;40.274;18.268;2022-07-21T03:37:12;101188.41;;;24.58;89.21
33404;BME280;19751;40.274;18.268;2022-07-21T03:39:38;101187.03;;;24.55;89.07
33404;BME280;19751;40.274;18.268;2022-07-21T03:42:04;101193.09;;;24.58;88.71
33404;BME280;19751;40.274;18.268;2022-07-21T03:44:29;101196.13;;;24.61;88.37
33404;BME280;19751;40.274;18.268;2022-07-21T03:46:55;101199.19;;;24.65;87.72
33404;BME280;19751;40.274;18.268;2022-07-21T03:49:23;101193.09;;;24.63;87.56
33404;BME280;19751;40.274;18.268;2022-07-21T03:51:49;101193.38;;;24.61;87.07
33404;BME280;19751;40.274;18.268;2022-07-21T03:54:14;101198.06;;;24.61;86.41
33404;BME280;19751;40.274;18.268;2022-07-21T03:56:40;101205.22;;;24.57;86.12
33404;BME280;19751;40.274;18.268;2022-07-21T03:59:05;101201.06;;;24.54;86.13
33404;BME280;19751;40.274;18.268;2022-07-21T04:01:31;101197.78;;;24.47;85.90
33404;BME280;19751;40.274;18.268;2022-07-21T04:03:56;101203.53;;;24.45;85.83
33404;BME280;19751;40.274;18.268;2022-07-21T04:06:22;101201.06;;;24.44;85.50
33404;BME280;19751;40.274;18.268;2022-07-21T04:08:47;101200.22;;;24.43;85.41
33404;BME280;19751;40.274;18.268;2022-07-21T04:11:13;101206.56;;;24.44;85.39
33404;BME280;19751;40.274;18.268;2022-07-21T04:13:38;101201.06;;;24.44;85.35
33404;BME280;19751;40.274;18.268;2022-07-21T04:16:04;101200.22;;;24.43;85.42
33404;BME280;19751;40.274;18.268;2022-07-21T04:18:30;101202.69;;;24.45;85.30
33404;BME280;19751;40.274;18.268;2022-07-21T04:20:55;101199.72;;;24.51;85.32
33404;BME280;19751;40.274;18.268;2022-07-21T04:23:21;101204.66;;;24.54;85.04
33404;BME280;19751;40.274;18.268;2022-07-21T04:25:46;101210.19;;;24.60;84.71
33404;BME280;19751;40.274;18.268;2022-07-21T04:28:12;101217.06;;;24.67;84.00
33404;BME280;19751;40.274;18.268;2022-07-21T04:30:37;101217.66;;;24.74;83.43
33404;BME280;19751;40.274;18.268;2022-07-21T04:33:03;101204.72;;;24.80;82.92
33404;BME280;19751;40.274;18.268;2022-07-21T04:35:29;101216.81;;;24.84;82.48
33404;BME280;19751;40.274;18.268;2022-07-21T04:37:54;101216.84;;;24.89;81.25
33404;BME280;19751;40.274;18.268;2022-07-21T04:40:20;101208.59;;;24.94;80.66
33404;BME280;19751;40.274;18.268;2022-07-21T04:42:45;101212.44;;;24.98;80.23
33404;BME280;19751;40.274;18.268;2022-07-21T04:45:12;101211.34;;;25.04;79.48
33404;BME280;19751;40.274;18.268;2022-07-21T04:47:46;101218.84;;;25.09;78.45
33404;BME280;19751;40.274;18.268;2022-07-21T04:50:12;101211.09;;;25.11;78.29
33404;BME280;19751;40.274;18.268;2022-07-21T04:52:37;101208.63;;;25.15;77.54
33404;BME280;19751;40.274;18.268;2022-07-21T04:55:03;101203.13;;;25.15;77.25
33404;BME280;19751;40.274;18.268;2022-07-21T04:57:29;101211.09;;;25.16;77.49
33404;BME280;19751;40.274;18.268;2022-07-21T04:59:54;101213.03;;;25.21;76.87
33404;BME280;19751;40.274;18.268;2022-07-21T05:02:20;101208.91;;;25.18;76.00
33404;BME280;19751;40.274;18.268;2022-07-21T05:04:45;101221.88;;;25.18;75.58
33404;BME280;19751;40.274;18.268;2022-07-21T05:07:11;101219.66;;;25.20;75.33
33404;BME280;19751;40.274;18.268;2022-07-21T05:09:36;101225.44;;;25.23;74.72
33404;BME280;19751;40.274;18.268;2022-07-21T05:12:02;101217.44;;;25.27;74.11
33404;BME280;19751;40.274;18.268;2022-07-21T05:14:28;101220.19;;;25.32;73.90
33404;BME280;19751;40.274;18.268;2022-07-21T05:16:53;101232.63;;;25.35;73.55
33404;BME280;19751;40.274;18.268;2022-07-21T05:19:19;101225.97;;;25.41;73.11
33404;BME280;19751;40.274;18.268;2022-07-21T05:21:44;101239.75;;;25.46;72.57
33404;BME280;19751;40.274;18.268;2022-07-21T05:24:11;101229.00;;;25.49;72.45
33404;BME280;19751;40.274;18.268;2022-07-21T05:26:37;101225.97;;;25.56;72.38
33404;BME280;19751;40.274;18.268;2022-07-21T05:29:02;101231.47;;;25.61;72.26
33404;BME280;19751;40.274;18.268;2022-07-21T05:31:28;101232.88;;;25.64;71.83
33404;BME280;19751;40.274;18.268;2022-07-21T05:33:54;101236.72;;;25.68;71.15
33404;BME280;19751;40.274;18.268;2022-07-21T05:36:19;101235.06;;;25.72;71.04
33404;BME280;19751;40.274;18.268;2022-07-21T05:38:46;101230.91;;;25.74;70.73
33404;BME280;19751;40.274;18.268;2022-07-21T05:41:12;101230.63;;;25.76;70.17
33404;BME280;19751;40.274;18.268;2022-07-21T05:43:37;101230.09;;;25.79;70.11
33404;BME280;19751;40.274;18.268;2022-07-21T05:46:02;101227.34;;;25.84;69.91
33404;BME280;19751;40.274;18.268;2022-07-21T05:48:28;101234.78;;;25.89;69.44
33404;BME280;19751;40.274;18.268;2022-07-21T05:50:53;101231.16;;;25.93;69.08
33404;BME280;19751;40.274;18.268;2022-07-21T05:53:19;101228.69;;;25.97;68.68
33404;BME280;19751;40.274;18.268;2022-07-21T05:55:45;101233.06;;;26.03;68.78
33404;BME280;19751;40.274;18.268;2022-07-21T05:58:10;101222.84;;;26.03;68.23
33404;BME280;19751;40.274;18.268;2022-07-21T06:00:37;101233.59;;;26.10;67.85
33404;BME280;19751;40.274;18.268;2022-07-21T06:03:02;101227.75;;;26.17;67.78
33404;BME280;19751;40.274;18.268;2022-07-21T06:05:28;101222.50;;;26.20;66.97
33404;BME280;19751;40.274;18.268;2022-07-21T06:07:53;101226.34;;;26.24;65.17
33404;BME280;19751;40.274;18.268;2022-07-21T06:10:19;101228.56;;;26.27;63.71
33404;BME280;19751;40.274;18.268;2022-07-21T06:12:44;101229.66;;;26.32;63.47
33404;BME280;19751;40.274;18.268;2022-07-21T06:15:11;101231.28;;;26.38;62.69
33404;BME280;19751;40.274;18.268;2022-07-21T06:17:43;101229.06;;;26.45;62.15
33404;BME280;19751;40.274;18.268;2022-07-21T06:20:09;101219.91;;;26.49;61.53
33404;BME280;19751;40.274;18.268;2022-07-21T06:22:36;101224.31;;;26.56;61.12
33404;BME280;19751;40.274;18.268;2022-07-21T06:25:02;101226.22;;;26.60;59.77
33404;BME280;19751;40.274;18.268;2022-07-21T06:27:28;101230.31;;;26.68;59.39
33404;BME280;19751;40.274;18.268;2022-07-21T06:29:54;101228.91;;;26.75;57.93
33404;BME280;19751;40.274;18.268;2022-07-21T06:32:22;101224.16;;;26.81;57.44
33404;BME280;19751;40.274;18.268;2022-07-21T06:34:48;101224.66;;;26.88;56.61
33404;BME280;19751;40.274;18.268;2022-07-21T06:37:13;101230.97;;;26.94;55.78
33404;BME280;19751;40.274;18.268;2022-07-21T06:39:39;101226.78;;;27.01;55.62
33404;BME280;19751;40.274;18.268;2022-07-21T06:42:07;101223.16;;;27.06;53.94
33404;BME280;19751;40.274;18.268;2022-07-21T06:44:33;101230.31;;;27.12;53.46
33404;BME280;19751;40.274;18.268;2022-07-21T06:46:59;101224.75;;;27.17;52.66
33404;BME280;19751;40.274;18.268;2022-07-21T06:49:32;101225.81;;;27.21;51.92
33404;BME280;19751;40.274;18.268;2022-07-21T06:51:58;101226.59;;;27.27;51.96
33404;BME280;19751;40.274;18.268;2022-07-21T06:54:23;101223.50;;;27.34;51.96
33404;BME280;19751;40.274;18.268;2022-07-21T06:56:49;101223.97;;;27.41;51.94
33404;BME280;19751;40.274;18.268;2022-07-21T06:59:14;101231.13;;;27.47;50.48
33404;BME280;19751;40.274;18.268;2022-07-21T07:01:40;101222.78;;;27.52;50.29
33404;BME280;19751;40.274;18.268;2022-07-21T07:04:05;101221.31;;;27.60;50.22
33404;BME280;19751;40.274;18.268;2022-07-21T07:06:31;101217.16;;;27.62;50.91
33404;BME280;19751;40.274;18.268;2022-07-21T07:08:57;101223.69;;;27.71;50.42
33404;BME280;19751;40.274;18.268;2022-07-21T07:11:22;101212.00;;;27.80;49.94
33404;BME280;19751;40.274;18.268;2022-07-21T07:13:48;101218.00;;;27.87;49.47
33404;BME280;19751;40.274;18.268;2022-07-21T07:16:13;101216.91;;;27.88;48.44
33404;BME280;19751;40.274;18.268;2022-07-21T07:18:39;101213.53;;;27.91;48.39
33404;BME280;19751;40.274;18.268;2022-07-21T07:21:04;101214.59;;;27.95;48.95
33404;BME280;19751;40.274;18.268;2022-07-21T07:23:30;101213.72;;;27.99;48.21
33404;BME280;19751;40.274;18.268;2022-07-21T07:25:55;101210.91;;;28.05;48.24
33404;BME280;19751;40.274;18.268;2022-07-21T07:28:21;101217.19;;;28.10;48.63
33404;BME280;19751;40.274;18.268;2022-07-21T07:30:47;101211.34;;;28.12;48.61
33404;BME280;19751;40.274;18.268;2022-07-21T07:33:14;101212.69;;;28.14;48.93
33404;BME280;19751;40.274;18.268;2022-07-21T07:35:39;101207.63;;;28.21;49.20
33404;BME280;19751;40.274;18.268;2022-07-21T07:38:05;101215.06;;;28.26;48.62
33404;BME280;19751;40.274;18.268;2022-07-21T07:40:30;101199.81;;;28.29;48.50
33404;BME280;19751;40.274;18.268;2022-07-21T07:42:56;101208.63;;;28.31;48.33
33404;BME280;19751;40.274;18.268;2022-07-21T07:45:21;101205.53;;;28.32;49.22
33404;BME280;19751;40.274;18.268;2022-07-21T07:47:47;101209.41;;;28.36;49.82
33404;BME280;19751;40.274;18.268;2022-07-21T07:50:13;101199.69;;;28.39;50.60
33404;BME280;19751;40.274;18.268;2022-07-21T07:52:41;101199.91;;;28.42;50.04
33404;BME280;19751;40.274;18.268;2022-07-21T07:55:09;101205.13;;;28.44;50.21
33404;BME280;19751;40.274;18.268;2022-07-21T07:57:39;101204.88;;;28.45;50.51
33404;BME280;19751;40.274;18.268;2022-07-21T08:00:08;101212.28;;;28.50;50.76
33404;BME280;19751;40.274;18.268;2022-07-21T08:02:34;101211.66;;;28.53;50.71
33404;BME280;19751;40.274;18.268;2022-07-21T08:05:00;101202.47;;;28.58;50.47
33404;BME280;19751;40.274;18.268;2022-07-21T08:07:26;101207.13;;;28.62;50.07
33404;BME280;19751;40.274;18.268;2022-07-21T08:09:51;101204.03;;;28.64;49.72
33404;BME280;19751;40.274;18.268;2022-07-21T08:12:16;101202.63;;;28.66;49.75
33404;BME280;19751;40.274;18.268;2022-07-21T08:14:42;101205.41;;;28.66;49.56
33404;BME280;19751;40.274;18.268;2022-07-21T08:17:07;101200.34;;;28.68;49.52
33404;BME280;19751;40.274;18.268;2022-07-21T08:19:33;101204.50;;;28.71;48.97
33404;BME280;19751;40.274;18.268;2022-07-21T08:21:59;101204.19;;;28.72;49.41
33404;BME280;19751;40.274;18.268;2022-07-21T08:24:24;101203.59;;;28.76;49.65
33404;BME280;19751;40.274;18.268;2022-07-21T08:26:50;101205.22;;;28.77;49.76
33404;BME280;19751;40.274;18.268;2022-07-21T08:29:15;101204.63;;;28.80;49.87
33404;BME280;19751;40.274;18.268;2022-07-21T08:31:41;101203.50;;;28.81;50.06
33404;BME280;19751;40.274;18.268;2022-07-21T08:34:06;101196.81;;;28.82;50.64
33404;BME280;19751;40.274;18.268;2022-07-21T08:36:32;101206.81;;;28.83;50.31
33404;BME280;19751;40.274;18.268;2022-07-21T08:38:57;101198.19;;;28.84;49.95
33404;BME280;19751;40.274;18.268;2022-07-21T08:41:23;101198.19;;;28.84;49.68
33404;BME280;19751;40.274;18.268;2022-07-21T08:43:49;101205.09;;;28.87;49.60
33404;BME280;19751;40.274;18.268;2022-07-21T08:46:15;101203.94;;;28.88;49.77
33404;BME280;19751;40.274;18.268;2022-07-21T08:48:42;101194.81;;;28.87;49.96
33404;BME280;19751;40.274;18.268;2022-07-21T08:51:08;101201.19;;;28.88;49.93
33404;BME280;19751;40.274;18.268;2022-07-21T08:53:34;101202.81;;;28.89;49.11
33404;BME280;19751;40.274;18.268;2022-07-21T08:55:59;101203.03;;;28.92;48.51
33404;BME280;19751;40.274;18.268;2022-07-21T08:58:25;101199.41;;;28.97;48.86
33404;BME280;19751;40.274;18.268;2022-07-21T09:00:50;101191.63;;;28.99;48.03
33404;BME280;19751;40.274;18.268;2022-07-21T09:03:22;101197.66;;;29.01;47.84
33404;BME280;19751;40.274;18.268;2022-07-21T09:06:07;101191.00;;;29.02;47.58
33404;BME280;19751;40.274;18.268;2022-07-21T09:08:39;101193.16;;;29.05;47.67
33404;BME280;19751;40.274;18.268;2022-07-21T09:11:27;101191.44;;;29.09;45.87
33404;BME280;19751;40.274;18.268;2022-07-21T09:14:09;101188.56;;;29.14;44.69
33404;BME280;19751;40.274;18.268;2022-07-21T09:16:43;101182.41;;;29.17;44.47
33404;BME280;19751;40.274;18.268;2022-07-21T09:21:49;101182.53;;;29.26;44.90
33404;BME280;19751;40.274;18.268;2022-07-21T09:24:18;101192.22;;;29.29;44.01
33404;BME280;19751;40.274;18.268;2022-07-21T09:27:00;101181.03;;;29.34;42.35
33404;BME280;19751;40.274;18.268;2022-07-21T09:29:26;101177.00;;;29.40;42.45
33404;BME280;19751;40.274;18.268;2022-07-21T09:31:58;101183.53;;;29.49;42.33
33404;BME280;19751;40.274;18.268;2022-07-21T09:34:36;101180.06;;;29.57;41.07
33404;BME280;19751;40.274;18.268;2022-07-21T09:37:05;101185.72;;;29.66;39.81
33404;BME280;19751;40.274;18.268;2022-07-21T09:42:15;101178.00;;;29.77;37.94
33404;BME280;19751;40.274;18.268;2022-07-21T09:44:47;101177.59;;;29.83;37.55
33404;BME280;19751;40.274;18.268;2022-07-21T09:47:14;101182.03;;;29.84;36.73
33404;BME280;19751;40.274;18.268;2022-07-21T09:49:40;101168.97;;;29.85;35.93
33404;BME280;19751;40.274;18.268;2022-07-21T09:52:36;101174.41;;;29.90;35.58
33404;BME280;19751;40.274;18.268;2022-07-21T09:55:09;101164.03;;;29.95;35.53
33404;BME280;19751;40.274;18.268;2022-07-21T09:57:35;101169.34;;;30.06;35.25
33404;BME280;19751;40.274;18.268;2022-07-21T10:00:04;101159.19;;;30.15;34.47
33404;BME280;19751;40.274;18.268;2022-07-21T10:02:31;101165.28;;;30.17;34.19
33404;BME280;19751;40.274;18.268;2022-07-21T10:04:59;101167.50;;;30.29;33.59
33404;BME280;19751;40.274;18.268;2022-07-21T10:07:26;101160.19;;;30.33;33.23
33404;BME280;19751;40.274;18.268;2022-07-21T10:09:53;101156.16;;;30.39;33.11
33404;BME280;19751;40.274;18.268;2022-07-21T10:12:19;101161.91;;;30.42;32.54
33404;BME280;19751;40.274;18.268;2022-07-21T10:14:45;101149.38;;;30.45;32.04
33404;BME280;19751;40.274;18.268;2022-07-21T10:17:13;101154.09;;;30.44;32.55
33404;BME280;19751;40.274;18.268;2022-07-21T10:19:52;101148.22;;;30.46;32.12
33404;BME280;19751;40.274;18.268;2022-07-21T10:25:17;101139.19;;;30.63;31.83
33404;BME280;19751;40.274;18.268;2022-07-21T10:28:11;101146.78;;;30.71;32.07
33404;BME280;19751;40.274;18.268;2022-07-21T10:30:39;101139.50;;;30.75;32.02
33404;BME280;19751;40.274;18.268;2022-07-21T10:33:05;101143.09;;;30.76;32.70
33404;BME280;19751;40.274;18.268;2022-07-21T10:35:32;101131.16;;;30.75;32.78
33404;BME280;19751;40.274;18.268;2022-07-21T10:37:59;101132.78;;;30.76;32.26
33404;BME280;19751;40.274;18.268;2022-07-21T10:45:33;101127.47;;;30.88;32.72
33404;BME280;19751;40.274;18.268;2022-07-21T10:48:00;101124.41;;;30.90;32.62
33404;BME280;19751;40.274;18.268;2022-07-21T10:50:33;101129.81;;;30.95;33.15
33404;BME280;19751;40.274;18.268;2022-07-21T10:53:02;101129.50;;;30.97;33.82
33404;BME280;19751;40.274;18.268;2022-07-21T10:55:31;101118.88;;;30.99;34.02
33404;BME280;19751;40.274;18.268;2022-07-21T11:00:59;101119.56;;;31.04;34.81
33404;BME280;19751;40.274;18.268;2022-07-21T11:06:18;101123.06;;;31.18;34.04
33404;BME280;19751;40.274;18.268;2022-07-21T11:11:30;101118.34;;;31.19;33.67
33404;BME280;19751;40.274;18.268;2022-07-21T11:21:51;101107.88;;;31.25;33.84
33404;BME280;19751;40.274;18.268;2022-07-21T11:24:23;101114.28;;;31.25;34.21
33404;BME280;19751;40.274;18.268;2022-07-21T11:27:06;101111.88;;;31.32;33.87
33404;BME280;19751;40.274;18.268;2022-07-21T11:29:33;101108.97;;;31.37;33.85
33404;BME280;19751;40.274;18.268;2022-07-21T11:32:00;101101.28;;;31.43;33.38
33404;BME280;19751;40.274;18.268;2022-07-21T11:34:37;101094.44;;;31.49;32.89
33404;BME280;19751;40.274;18.268;2022-07-21T11:37:03;101090.84;;;31.57;32.49
33404;BME280;19751;40.274;18.268;2022-07-21T11:39:29;101094.00;;;31.64;31.06
33404;BME280;19751;40.274;18.268;2022-07-21T11:41:54;101097.13;;;31.72;31.10
33404;BME280;19751;40.274;18.268;2022-07-21T11:44:26;101093.06;;;31.78;31.47
33404;BME280;19751;40.274;18.268;2022-07-21T11:46:57;101098.66;;;31.86;32.10
33404;BME280;19751;40.274;18.268;2022-07-21T11:49:24;101099.31;;;31.92;31.68
33404;BME280;19751;40.274;18.268;2022-07-21T11:52:16;101094.91;;;31.91;30.74
33404;BME280;19751;40.274;18.268;2022-07-21T11:54:53;101099.00;;;31.93;30.59
33404;BME280;19751;40.274;18.268;2022-07-21T11:57:20;101087.03;;;32.02;30.81
33404;BME280;19751;40.274;18.268;2022-07-21T11:59:47;101091.31;;;32.08;30.68
33404;BME280;19751;40.274;18.268;2022-07-21T12:02:14;101088.06;;;32.14;30.84
33404;BME280;19751;40.274;18.268;2022-07-21T12:04:45;101098.34;;;32.14;31.77
33404;BME280;19751;40.274;18.268;2022-07-21T12:07:21;101089.69;;;32.15;32.44
33404;BME280;19751;40.274;18.268;2022-07-21T12:09:52;101094.63;;;32.18;32.29
33404;BME280;19751;40.274;18.268;2022-07-21T12:12:35;101086.09;;;32.24;32.55
33404;BME280;19751;40.274;18.268;2022-07-21T12:20:23;101088.72;;;32.29;32.15
33404;BME280;19751;40.274;18.268;2022-07-21T12:22:49;101088.53;;;32.25;31.76
33404;BME280;19751;40.274;18.268;2022-07-21T12:25:17;101077.09;;;32.27;32.16
33404;BME280;19751;40.274;18.268;2022-07-21T12:27:45;101078.38;;;32.29;32.35
33404;BME280;19751;40.274;18.268;2022-07-21T12:30:30;101072.81;;;32.29;31.16
33404;BME280;19751;40.274;18.268;2022-07-21T12:33:11;101075.75;;;32.33;30.29
33404;BME280;19751;40.274;18.268;2022-07-21T12:35:39;101078.91;;;32.40;30.41
33404;BME280;19751;40.274;18.268;2022-07-21T12:40:37;101070.72;;;32.44;30.51
33404;BME280;19751;40.274;18.268;2022-07-21T12:43:11;101071.34;;;32.49;30.56
33404;BME280;19751;40.274;18.268;2022-07-21T12:48:14;101066.41;;;32.63;30.69
33404;BME280;19751;40.274;18.268;2022-07-21T12:50:40;101073.47;;;32.70;30.24
33404;BME280;19751;40.274;18.268;2022-07-21T12:53:11;101077.41;;;32.69;30.43
33404;BME280;19751;40.274;18.268;2022-07-21T12:55:37;101068.69;;;32.70;30.21
33404;BME280;19751;40.274;18.268;2022-07-21T12:58:04;101068.34;;;32.72;29.56
33404;BME280;19751;40.274;18.268;2022-07-21T13:00:31;101063.59;;;32.72;29.08
33404;BME280;19751;40.274;18.268;2022-07-21T13:02:57;101059.66;;;32.73;28.82
33404;BME280;19751;40.274;18.268;2022-07-21T13:05:24;101054.72;;;32.79;29.48
33404;BME280;19751;40.274;18.268;2022-07-21T13:07:51;101061.09;;;32.88;29.81
33404;BME280;19751;40.274;18.268;2022-07-21T13:10:18;101050.44;;;32.99;30.48
33404;BME280;19751;40.274;18.268;2022-07-21T13:12:43;101051.06;;;33.04;29.44
33404;BME280;19751;40.274;18.268;2022-07-21T13:15:09;101050.56;;;33.11;29.48
33404;BME280;19751;40.274;18.268;2022-07-21T13:17:35;101050.06;;;33.09;29.16
33404;BME280;19751;40.274;18.268;2022-07-21T13:20:00;101042.38;;;33.06;29.16
33404;BME280;19751;40.274;18.268;2022-07-21T13:22:26;101045.28;;;33.09;29.83